Bookmark and Share
Track history (hours):
 

Faust

Last reported at 2014-Apr-11 19:24 UTC. Time now 2014-Apr-16 16:13 UTC.
Position N 07°44' W 014°51'.

Length 227.8 m; beam 32.3 m; draft 9.5 m.

Type: Cargo ship. MMSI: 266260000.

NotesDate/timePositionNaut miles runAvg speedWind from/ knotsBaromVisibWave heightAir tempDewpointWater temp
2014-Apr-11 19:24N 07°44' W 014°51'1416.6
2014-Apr-11 18:33N 07°55' W 014°59'1716.7
2014-Apr-11 17:33N 08°09' W 015°09'1716.4
2014-Apr-11 16:30N 08°23' W 015°19'1516.3
2014-Apr-11 15:33N 08°35' W 015°28'3316.3
2014-Apr-11 13:33N 09°02' W 015°48'1616.3
2014-Apr-11 12:33N 09°15' W 015°57'1616.2
2014-Apr-11 11:33N 09°28' W 016°07'1816.8
2014-Apr-11 10:28N 09°43' W 016°18'1516.9
2014-Apr-11 09:33N 09°55' W 016°27'1414.4
2014-Apr-11 08:34N 10°07' W 016°36'1616.1
2014-Apr-11 07:33N 10°20' W 016°45'1716.8
2014-Apr-11 06:33N 10°34' W 016°55'2416.5
2014-Apr-11 05:06N 10°55' W 017°06'1216.5
2014-Apr-11 04:21N 11°06' W 017°11'3016.8
2014-Apr-11 02:33N 11°35' W 017°22'1716.5
2014-Apr-11 01:33N 11°50' W 017°28'  
2014-Apr-07 22:19N 32°58' W 013°28'9117.6
2014-Apr-07 17:10N 34°26' W 013°00'1117.8
2014-Apr-07 16:32N 34°37' W 012°57'6817.2
2014-Apr-07 12:33N 35°43' W 012°35'1817.1
2014-Apr-07 11:31N 36°00' W 012°29'3517.2
2014-Apr-07 09:28N 36°34' W 012°18'1617.0
2014-Apr-07 08:33N 36°49' W 012°13'50213.5
2014-Apr-05 19:26N 43°46' W 006°06'3315.7
2014-Apr-05 17:20N 43°42' W 005°21'1315.7
2014-Apr-05 16:31N 43°40' W 005°03'407 9.7
2014-Apr-03 22:19N 50°09' W 002°08'1013.3
2014-Apr-03 21:33N 50°14' W 001°54'1313.5
2014-Apr-03 20:33N 50°21' W 001°35'1514.8
2014-Apr-03 19:33N 50°28' W 001°15'1515.0
2014-Apr-03 18:34N 50°38' W 000°57'1111.2
2014-Apr-03 17:33N 50°46' W 001°10'1010.1
2014-Apr-03 16:33N 50°52' W 001°22'1 1.5
2014-Apr-03 15:33N 50°53' W 001°24'0 0.0
2014-Apr-03 14:31N 50°53' W 001°24'0 0.0
2014-Apr-03 13:31N 50°53' W 001°24'0 0.0
2014-Apr-03 12:31N 50°53' W 001°24'0 0.0
2014-Apr-03 11:31N 50°53' W 001°24'0 0.0
2014-Apr-03 10:31N 50°53' W 001°24'0 0.0
2014-Apr-03 09:31N 50°53' W 001°24'0 0.0
2014-Apr-03 08:31N 50°53' W 001°24'0 0.0
2014-Apr-03 07:31N 50°53' W 001°24'0 0.0
2014-Apr-03 06:34N 50°53' W 001°24'5 4.6
2014-Apr-03 05:34N 50°50' W 001°19'1111.3
2014-Apr-03 04:34N 50°44' W 001°03'10 9.9
2014-Apr-03 03:34N 50°37' W 000°52'1616.1
2014-Apr-03 02:33N 50°34' W 000°27'1616.0
2014-Apr-03 01:33N 50°32' W 000°02'1615.9
2014-Apr-03 00:33N 50°36' E 000°22'1514.9
2014-Apr-02 23:33N 50°42' E 000°44'1414.4
2014-Apr-02 22:33N 50°50' E 001°03'1616.1
2014-Apr-02 21:33N 51°01' E 001°21'1919.5
2014-Apr-02 20:33N 51°13' E 001°46'1817.8
2014-Apr-02 19:33N 51°29' E 001°59'5015.7
2014-Apr-02 16:24N 52°06' E 002°52'1714.8
2014-Apr-02 15:15N 52°19' E 003°10'3315.7
2014-Apr-02 13:08N 52°46' E 003°43'1117.8
2014-Apr-02 12:30N 52°54' E 003°55'1717.8
2014-Apr-02 11:33N 53°05' E 004°16'1717.2
2014-Apr-02 10:33N 53°20' E 004°32'1615.9
2014-Apr-02 09:33N 53°32' E 004°49'1615.5
2014-Apr-02 08:33N 53°37' E 005°14'1515.0
2014-Apr-02 07:33N 53°41' E 005°38'1515.4
2014-Apr-02 06:33N 53°46' E 006°03'1615.6
2014-Apr-02 05:33N 53°51' E 006°28'1716.4
2014-Apr-02 04:32N 53°55' E 006°56'1616.4
2014-Apr-02 03:33N 53°58' E 007°22'1413.5
2014-Apr-02 02:33N 53°54' E 007°44'1413.7
2014-Apr-02 01:33N 53°50' E 008°06'1514.7
2014-Apr-02 00:33N 53°39' E 008°24'8 7.6
2014-Apr-01 23:34N 53°34' E 008°33'1 1.0
2014-Apr-01 22:33N 53°35' E 008°33'0 0.0
2014-Apr-01 21:32N 53°35' E 008°33'0 0.0
2014-Apr-01 20:32N 53°35' E 008°33'0 0.0
2014-Apr-01 19:32N 53°35' E 008°33'  

Dump ship's entire track history

sailing weather and tide predictions

Faust — SLKQ — position and weather